Adah, Pennsylvania
Current Conditions -  °F | °C
As of 11:53 PM on Thursday 30 Oct 2014 (Local Time) from KMGW Reporting Station
Overcast Overcast  
Wind Chill: 47°   Ceiling: 4100
Heat Index: 47°   Visibility: 10mi
Dew Point: 37°   Wind: 0mph
Humidity: 68%   Direction: NA
Pressure: 30.06"   Gusts: NA
Location:  39.9°N, 79.92°W
Report Text: KMGW 310353Z AUTO 00000KT 10SM OVC041 08/03 A3006 RMK AO2 SLP181 T00830028 TSNO
Loading
Personal Weather Stations






























Interactive Weather Map
Tropical Storm Tracking
New forecast layout! Learn more

10-Day Weather Forecast

Advertisements
Track Severe Weather on mobile